Time;durP1;ratioP1;P1;durP2;ratioP2;P2;SDS_P1;SDS_P2;PMS_P1;PMS_P2;Temp;Humidity;BMP_temperature;BMP_pressure;BME280_temperature;BME280_humidity;BME280_pressure;Samples;Min_cycle;Max_cycle;Signal;HPM_P1;HPM_P2
2022/04/04 00:01:43;;;;;;;3.72;0.70;;;22.80;97.80;;;;;;5012426;28;20513;-71
2022/04/04 00:04:11;;;;;;;4.28;0.80;;;22.90;97.80;;;;;;5002287;28;20033;-72
2022/04/04 00:06:38;;;;;;;2.00;0.60;;;23.00;97.60;;;;;;5008480;28;20034;-70
2022/04/04 00:09:06;;;;;;;11.40;1.58;;;23.30;96.80;;;;;;5044583;23;20049;-72
2022/04/04 00:11:33;;;;;;;4.05;0.93;;;23.30;96.90;;;;;;5029248;28;20034;-71
2022/04/04 00:14:00;;;;;;;3.67;0.80;;;23.60;96.70;;;;;;5023240;28;20486;-72
2022/04/04 00:16:28;;;;;;;3.67;1.05;;;23.50;96.50;;;;;;5027688;28;20025;-72
2022/04/04 00:18:55;;;;;;;3.95;1.13;;;23.70;96.20;;;;;;5030941;28;20033;-72
2022/04/04 00:21:22;;;;;;;4.82;0.70;;;23.60;96.50;;;;;;5038806;28;20034;-71
2022/04/04 00:23:49;;;;;;;4.18;1.05;;;23.60;96.10;;;;;;5022234;28;20501;-71
2022/04/04 00:26:17;;;;;;;2.22;0.55;;;23.90;96.30;;;;;;5044440;28;20029;-72
2022/04/04 00:28:44;;;;;;;6.65;0.95;;;23.90;96.60;;;;;;5032615;28;20036;-70
2022/04/04 00:31:11;;;;;;;5.95;1.00;;;24.30;96.00;;;;;;5031472;28;20033;-71
2022/04/04 00:33:38;;;;;;;3.40;0.90;;;24.40;95.90;;;;;;5029463;28;20095;-71
2022/04/04 00:36:07;;;;;;;2.63;0.90;;;24.20;95.70;;;;;;5029842;28;20033;-70
2022/04/04 00:38:34;;;;;;;4.32;0.90;;;23.90;95.60;;;;;;5019429;28;20033;-71
2022/04/04 00:41:07;;;;;;;3.80;0.93;;;24.20;95.10;;;;;;5021191;28;20021;-71
2022/04/04 00:43:35;;;;;;;4.30;0.70;;;24.20;95.70;;;;;;5040667;23;20060;-69
2022/04/04 00:46:02;;;;;;;5.30;0.68;;;24.10;95.10;;;;;;5034510;28;20393;-71
2022/04/04 00:48:30;;;;;;;3.75;0.98;;;24.20;95.80;;;;;;5013961;28;20026;-70
2022/04/04 00:50:58;;;;;;;3.28;0.85;;;24.50;94.90;;;;;;5023707;28;20393;-70
2022/04/04 00:53:26;;;;;;;4.93;0.70;;;24.40;94.70;;;;;;5000244;28;20077;-70
2022/04/04 00:55:55;;;;;;;3.28;0.80;;;24.20;95.00;;;;;;5033431;28;20030;-70
2022/04/04 00:58:23;;;;;;;3.35;0.55;;;24.30;94.70;;;;;;5026564;28;20385;-69
2022/04/04 01:00:52;;;;;;;2.75;0.88;;;24.70;95.10;;;;;;5018114;28;20021;-70
2022/04/04 01:03:19;;;;;;;1.50;0.40;;;24.60;95.20;;;;;;5025834;28;20433;-71
2022/04/04 01:05:47;;;;;;;4.78;1.10;;;25.00;94.70;;;;;;5004187;28;20109;-71
2022/04/04 01:08:15;;;;;;;2.60;0.90;;;25.30;94.70;;;;;;5026271;28;20088;-70
2022/04/04 01:10:44;;;;;;;4.72;1.00;;;25.70;94.30;;;;;;5012228;28;20075;-72
2022/04/04 01:13:12;;;;;;;3.63;0.52;;;25.40;94.40;;;;;;5006618;28;20042;-71
2022/04/04 01:15:40;;;;;;;3.28;0.88;;;25.50;94.20;;;;;;5021178;28;20066;-70
2022/04/04 01:18:09;;;;;;;4.22;0.85;;;24.80;93.90;;;;;;5011854;28;20033;-70
2022/04/04 01:20:38;;;;;;;4.07;0.60;;;24.80;94.60;;;;;;5014487;28;20493;-71
2022/04/04 01:23:07;;;;;;;2.50;0.75;;;24.90;94.60;;;;;;5013106;28;20032;-71
2022/04/04 01:25:35;;;;;;;2.53;0.80;;;25.00;94.40;;;;;;5014480;28;20149;-71
2022/04/04 01:28:05;;;;;;;4.03;0.93;;;24.90;94.80;;;;;;5028148;28;20437;-71
2022/04/04 01:30:33;;;;;;;3.17;0.90;;;24.90;94.40;;;;;;5014717;28;20026;-71
2022/04/04 01:33:01;;;;;;;2.60;0.70;;;24.90;95.60;;;;;;5024648;28;20042;-71
2022/04/04 01:35:28;;;;;;;3.85;1.00;;;25.20;94.60;;;;;;4995039;28;20044;-71
2022/04/04 01:37:56;;;;;;;3.53;0.95;;;25.40;94.40;;;;;;5015589;28;20023;-71
2022/04/04 01:40:23;;;;;;;3.90;1.10;;;25.50;94.50;;;;;;5009678;28;20522;-71
2022/04/04 01:42:53;;;;;;;4.00;0.80;;;25.40;94.50;;;;;;5024102;28;20049;-70
2022/04/04 01:46:23;;;;;;;1.05;0.40;;;25.20;94.70;;;;;;5012710;28;20049;-70
2022/04/04 01:48:09;;;;;;;2.67;0.70;;;25.10;94.20;;;;;;5011725;28;20030;-70
2022/04/04 01:50:37;;;;;;;2.78;0.50;;;25.50;94.40;;;;;;5013816;28;20450;-71
2022/04/04 01:55:51;;;;;;;4.35;1.23;;;25.50;94.80;;;;;;5013955;28;20092;-71
2022/04/04 01:58:18;;;;;;;2.95;0.52;;;25.10;94.60;;;;;;5029376;28;20030;-72
2022/04/04 02:00:46;;;;;;;5.57;0.77;;;25.90;95.20;;;;;;5042976;28;20033;-71
2022/04/04 02:03:13;;;;;;;2.20;0.45;;;26.00;94.30;;;;;;5033462;28;20421;-72
2022/04/04 02:05:41;;;;;;;3.40;0.68;;;25.60;94.40;;;;;;5032304;28;20025;-72
2022/04/04 02:08:09;;;;;;;1.80;0.70;;;26.10;94.10;;;;;;5031634;28;20022;-70
2022/04/04 02:10:36;;;;;;;2.88;0.60;;;25.80;94.20;;;;;;5028057;28;20041;-71
2022/04/04 02:13:03;;;;;;;3.80;0.93;;;25.60;94.40;;;;;;5031930;28;20040;-72
2022/04/04 02:15:30;;;;;;;4.07;0.60;;;26.00;94.30;;;;;;5031680;28;20032;-72
2022/04/04 02:17:58;;;;;;;6.53;1.38;;;26.40;94.80;;;;;;5027300;28;20084;-71
2022/04/04 02:20:25;;;;;;;3.80;0.98;;;26.50;93.60;;;;;;5027760;28;20029;-71
2022/04/04 02:22:53;;;;;;;3.35;0.57;;;26.40;93.60;;;;;;5038532;28;20408;-72
2022/04/04 02:25:20;;;;;;;3.00;0.90;;;26.20;94.30;;;;;;5032020;28;20029;-72
2022/04/04 02:27:48;;;;;;;2.05;0.75;;;26.10;93.50;;;;;;5032272;28;20030;-72
2022/04/04 02:30:15;;;;;;;2.03;0.93;;;26.10;93.90;;;;;;5032515;28;20493;-71
2022/04/04 02:32:43;;;;;;;2.38;1.00;;;25.40;93.60;;;;;;5031167;28;20025;-71
2022/04/04 02:35:10;;;;;;;5.53;0.82;;;25.10;94.20;;;;;;5033273;28;20030;-71
2022/04/04 02:37:37;;;;;;;3.40;0.77;;;25.00;94.10;;;;;;5030734;28;20037;-72
2022/04/04 02:40:05;;;;;;;5.38;1.08;;;24.80;94.60;;;;;;5031837;28;20028;-72
2022/04/04 02:42:33;;;;;;;2.15;0.60;;;25.00;94.90;;;;;;5033031;28;20022;-69
2022/04/04 02:45:00;;;;;;;2.75;0.88;;;25.90;95.10;;;;;;5026021;28;20033;-69
2022/04/04 02:47:28;;;;;;;3.50;0.80;;;26.40;94.10;;;;;;5023996;28;20049;-70
2022/04/04 02:49:55;;;;;;;2.53;0.50;;;26.90;95.60;;;;;;5011840;28;20045;-70
2022/04/04 02:52:22;;;;;;;4.75;0.70;;;27.20;94.00;;;;;;5033497;28;20052;-69
2022/04/04 02:54:50;;;;;;;2.80;0.73;;;26.90;93.80;;;;;;5019140;28;20040;-69
2022/04/04 02:57:17;;;;;;;5.22;0.60;;;27.10;93.90;;;;;;5035743;28;20025;-70
2022/04/04 02:59:45;;;;;;;3.80;0.55;;;26.80;93.50;;;;;;5046606;28;20056;-70
2022/04/04 03:02:13;;;;;;;4.90;0.77;;;26.80;93.50;;;;;;5029967;28;20013;-69
2022/04/04 03:04:42;;;;;;;5.60;0.77;;;26.90;93.80;;;;;;5032911;28;20092;-70
2022/04/04 03:07:10;;;;;;;2.08;0.80;;;26.90;93.90;;;;;;5032885;28;20025;-69
2022/04/04 03:09:37;;;;;;;2.95;0.70;;;27.10;93.60;;;;;;5032058;28;20034;-71
2022/04/04 03:12:07;;;;;;;1.60;0.60;;;26.70;93.60;;;;;;5026408;28;20482;-70
2022/04/04 03:14:34;;;;;;;4.65;0.88;;;26.90;94.30;;;;;;5033640;28;20041;-69
2022/04/04 03:17:02;;;;;;;2.95;0.73;;;26.90;93.20;;;;;;5026588;28;20025;-69
2022/04/04 03:19:29;;;;;;;2.75;0.70;;;26.70;93.30;;;;;;5031519;28;20079;-69
2022/04/04 03:21:57;;;;;;;3.25;0.70;;;26.60;93.90;;;;;;5033831;28;20525;-69
2022/04/04 03:24:25;;;;;;;2.75;0.70;;;26.50;93.50;;;;;;5024409;28;20045;-68
2022/04/04 03:26:52;;;;;;;4.55;0.88;;;26.20;93.70;;;;;;5023926;28;20068;-68
2022/04/04 03:29:20;;;;;;;2.78;0.80;;;26.00;93.60;;;;;;5020177;28;20041;-68
2022/04/04 03:31:47;;;;;;;4.40;0.60;;;25.90;94.00;;;;;;5028007;28;20068;-68
2022/04/04 03:34:15;;;;;;;3.70;0.68;;;26.40;93.70;;;;;;5038486;28;20049;-71
2022/04/04 03:36:42;;;;;;;3.40;0.52;;;26.40;93.80;;;;;;5034130;28;20030;-72
2022/04/04 03:39:12;;;;;;;1.42;0.50;;;26.70;95.50;;;;;;5032816;28;20033;-71
2022/04/04 03:41:40;;;;;;;3.67;0.50;;;27.20;93.50;;;;;;5025920;28;20041;-70
2022/04/04 03:44:08;;;;;;;5.30;0.80;;;27.60;94.20;;;;;;5036199;28;20064;-69
2022/04/04 03:46:35;;;;;;;6.78;1.17;;;27.50;93.10;;;;;;5019373;28;20528;-69
2022/04/04 03:49:02;;;;;;;2.42;0.45;;;27.20;92.90;;;;;;5030447;28;20104;-69
2022/04/04 03:51:30;;;;;;;2.42;1.25;;;26.90;93.90;;;;;;5026772;28;20422;-70
2022/04/04 03:53:57;;;;;;;4.35;0.90;;;26.90;93.30;;;;;;5030025;28;20034;-69
2022/04/04 03:56:25;;;;;;;6.07;0.60;;;27.00;93.10;;;;;;5031635;28;20116;-69
2022/04/04 03:58:54;;;;;;;3.15;0.50;;;27.10;93.00;;;;;;5028475;28;20112;-68
2022/04/04 04:01:23;;;;;;;2.90;0.50;;;26.90;92.90;;;;;;5020337;28;20025;-68
2022/04/04 04:03:50;;;;;;;2.65;0.80;;;27.10;93.00;;;;;;5023781;28;20040;-68
2022/04/04 04:06:17;;;;;;;4.97;0.80;;;26.80;93.20;;;;;;5029432;28;20036;-70
2022/04/04 04:08:46;;;;;;;6.22;0.70;;;26.90;93.40;;;;;;5041099;28;20508;-70
2022/04/04 04:11:16;;;;;;;4.25;0.60;;;26.90;94.10;;;;;;5027626;28;20501;-69
2022/04/04 04:13:45;;;;;;;2.15;0.70;;;26.90;93.50;;;;;;5029170;28;20025;-70
2022/04/04 04:16:15;;;;;;;6.43;1.30;;;27.00;93.60;;;;;;5034259;28;20025;-69
2022/04/04 04:18:43;;;;;;;3.70;1.15;;;26.90;94.00;;;;;;5034897;28;20029;-70
2022/04/04 04:21:11;;;;;;;3.80;0.82;;;27.40;94.10;;;;;;5039749;28;20022;-70
2022/04/04 04:23:40;;;;;;;4.57;0.57;;;27.60;93.00;;;;;;5025813;28;20022;-70
2022/04/04 04:26:09;;;;;;;3.55;0.80;;;27.80;92.40;;;;;;5030799;28;20037;-70
2022/04/04 04:28:36;;;;;;;10.10;1.50;;;27.50;93.80;;;;;;5032949;28;20385;-70
2022/04/04 04:31:04;;;;;;;3.47;0.68;;;27.30;93.20;;;;;;5037138;28;20470;-70
2022/04/04 04:33:31;;;;;;;4.13;1.02;;;27.40;93.00;;;;;;5029419;28;20041;-71
2022/04/04 04:36:00;;;;;;;4.20;0.57;;;27.60;93.30;;;;;;5034034;28;20033;-69
2022/04/04 04:38:29;;;;;;;6.85;1.05;;;27.20;91.90;;;;;;5036066;28;20022;-71
2022/04/04 04:40:56;;;;;;;3.22;0.68;;;27.20;92.90;;;;;;5057124;28;20102;-70
2022/04/04 04:43:24;;;;;;;3.05;0.55;;;27.20;93.00;;;;;;5045429;28;20089;-70
2022/04/04 04:45:51;;;;;;;1.65;0.60;;;27.20;92.90;;;;;;5041922;28;20021;-70
2022/04/04 04:48:19;;;;;;;2.67;0.65;;;27.50;92.70;;;;;;5035214;28;20014;-70
2022/04/04 04:50:47;;;;;;;3.10;0.77;;;27.60;92.20;;;;;;5027552;28;20025;-70
2022/04/04 04:53:15;;;;;;;1.80;0.40;;;27.50;91.70;;;;;;5040348;28;20045;-70
2022/04/04 04:55:42;;;;;;;5.60;0.50;;;27.40;91.50;;;;;;5055610;28;20026;-69
2022/04/04 04:58:10;;;;;;;2.50;0.50;;;27.40;92.70;;;;;;5044748;28;20029;-70
2022/04/04 05:00:37;;;;;;;2.28;0.50;;;27.20;91.90;;;;;;5035469;28;20049;-70
2022/04/04 05:05:50;;;;;;;4.05;0.93;;;27.20;92.50;;;;;;5041469;28;20036;-69
2022/04/04 05:08:18;;;;;;;5.30;0.50;;;27.10;91.60;;;;;;5032567;28;20055;-68
2022/04/04 05:10:46;;;;;;;3.78;0.55;;;27.10;91.70;;;;;;5021200;28;20030;-69
2022/04/04 05:13:14;;;;;;;2.20;0.70;;;27.20;91.80;;;;;;5028508;28;20030;-69
2022/04/04 05:15:41;;;;;;;2.03;0.47;;;27.10;91.80;;;;;;5022245;28;20180;-70
2022/04/04 05:18:09;;;;;;;1.23;0.40;;;27.00;92.10;;;;;;5018761;28;20490;-68
2022/04/04 05:20:36;;;;;;;1.85;0.40;;;26.80;92.00;;;;;;5029838;28;20108;-68
2022/04/04 05:23:03;;;;;;;1.98;0.60;;;27.00;92.00;;;;;;5028089;28;20036;-67
2022/04/04 05:25:31;;;;;;;5.68;0.68;;;27.00;92.50;;;;;;5025955;28;20390;-67
2022/04/04 05:27:59;;;;;;;4.80;0.40;;;26.80;91.40;;;;;;5019326;28;20497;-67
2022/04/04 05:30:26;;;;;;;6.03;0.50;;;26.60;91.30;;;;;;5014955;28;20026;-67
2022/04/04 05:32:54;;;;;;;2.72;0.52;;;26.50;91.70;;;;;;5022781;28;20038;-67
2022/04/04 05:35:21;;;;;;;6.18;0.60;;;26.60;91.30;;;;;;5014772;28;20196;-67
2022/04/04 05:37:54;;;;;;;2.67;0.40;;;26.60;92.20;;;;;;5028832;28;20045;-67
2022/04/04 05:40:23;;;;;;;2.90;0.70;;;26.60;91.90;;;;;;5024812;28;20048;-67
2022/04/04 05:42:50;;;;;;;5.50;5.00;;;26.50;91.80;;;;;;5021907;28;20350;-68
2022/04/04 05:45:18;;;;;;;4.50;2.08;;;26.40;92.10;;;;;;5023138;28;20033;-67
2022/04/04 05:47:45;;;;;;;16.63;13.07;;;26.40;92.90;;;;;;5030209;28;20034;-67
2022/04/04 05:50:13;;;;;;;11.98;5.28;;;26.20;95.70;;;;;;5027081;28;20100;-67
2022/04/04 05:52:42;;;;;;;5.70;2.60;;;26.00;96.50;;;;;;5055832;28;20575;-67
2022/04/04 05:55:10;;;;;;;6.18;3.90;;;25.80;96.90;;;;;;5042684;28;20029;-68
2022/04/04 05:57:41;;;;;;;5.18;2.05;;;25.70;97.60;;;;;;5059137;28;20034;-67
2022/04/04 06:00:13;;;;;;;5.50;1.60;;;25.60;97.20;;;;;;5050334;28;20116;-68
2022/04/04 06:02:42;;;;;;;7.32;2.22;;;25.40;97.80;;;;;;5049233;28;20030;-67
2022/04/04 06:05:10;;;;;;;4.22;1.25;;;25.20;98.30;;;;;;5043636;28;20083;-68
2022/04/04 06:07:38;;;;;;;2.92;0.90;;;25.00;98.80;;;;;;5048454;28;20048;-68
2022/04/04 06:10:07;;;;;;;5.63;1.73;;;24.90;98.70;;;;;;5045350;28;20024;-68
2022/04/04 06:12:38;;;;;;;6.68;3.97;;;24.90;99.00;;;;;;5041639;28;20035;-68
2022/04/04 06:15:06;;;;;;;5.38;0.80;;;24.90;99.90;;;;;;5040276;28;20036;-68
2022/04/04 06:17:34;;;;;;;8.55;1.23;;;24.60;99.90;;;;;;5049441;28;20025;-67
2022/04/04 06:20:03;;;;;;;8.35;1.98;;;24.40;99.90;;;;;;5051830;28;20428;-69
2022/04/04 06:22:38;;;;;;;2.65;1.10;;;24.30;99.90;;;;;;5060120;28;20033;-68
2022/04/04 06:25:12;;;;;;;9.35;2.15;;;24.30;99.90;;;;;;5049094;28;20059;-68
2022/04/04 06:27:42;;;;;;;5.85;0.88;;;24.30;99.90;;;;;;5047092;28;20038;-68
2022/04/04 06:30:10;;;;;;;7.25;2.88;;;24.20;99.90;;;;;;5050105;28;20036;-68
2022/04/04 06:32:41;;;;;;;7.85;1.40;;;24.30;99.90;;;;;;5048791;28;20067;-69
2022/04/04 06:35:09;;;;;;;4.43;1.63;;;24.30;99.90;;;;;;5045368;28;20075;-68
2022/04/04 06:37:36;;;;;;;5.38;0.80;;;24.20;99.90;;;;;;5030379;28;20040;-68
2022/04/04 06:40:05;;;;;;;3.92;1.00;;;24.10;99.90;;;;;;5044051;28;20017;-69
2022/04/04 06:42:40;;;;;;;4.47;1.42;;;24.10;99.90;;;;;;5051592;28;20020;-69
2022/04/04 06:45:09;;;;;;;4.68;0.88;;;24.10;99.90;;;;;;5048375;28;20030;-69
2022/04/04 06:47:37;;;;;;;8.00;0.82;;;24.00;99.90;;;;;;5046844;28;20052;-69
2022/04/04 06:50:05;;;;;;;2.20;0.52;;;23.90;99.90;;;;;;5042079;28;20100;-70
2022/04/04 06:52:33;;;;;;;4.47;0.80;;;23.80;99.90;;;;;;5060350;28;20417;-69
2022/04/04 06:55:01;;;;;;;2.83;1.00;;;23.80;99.90;;;;;;5049252;28;20481;-68
2022/04/04 06:57:30;;;;;;;4.22;1.63;;;23.70;99.90;;;;;;5032530;28;20033;-68
2022/04/04 06:59:58;;;;;;;3.30;0.90;;;23.70;99.90;;;;;;5026598;28;20055;-69
2022/04/04 07:02:25;;;;;;;2.38;0.98;;;23.60;99.90;;;;;;5049184;28;20021;-68
2022/04/04 07:04:56;;;;;;;4.13;1.00;;;23.50;99.90;;;;;;5046215;28;20086;-69
2022/04/04 07:07:24;;;;;;;4.35;1.27;;;23.50;99.90;;;;;;5048818;28;20044;-69
2022/04/04 07:09:51;;;;;;;3.50;1.30;;;23.50;99.90;;;;;;5047982;28;20018;-68
2022/04/04 07:12:19;;;;;;;2.15;0.40;;;23.50;99.90;;;;;;5047652;28;20090;-68
2022/04/04 07:14:46;;;;;;;3.70;0.70;;;23.30;99.90;;;;;;5047137;28;20021;-69
2022/04/04 07:17:13;;;;;;;7.45;1.05;;;23.30;99.90;;;;;;5052019;28;20493;-69
2022/04/04 07:19:40;;;;;;;3.92;0.73;;;23.30;99.90;;;;;;5042539;28;20485;-69
2022/04/04 07:22:09;;;;;;;6.00;1.20;;;23.30;99.90;;;;;;5033327;28;20025;-69
2022/04/04 07:24:37;;;;;;;6.35;0.85;;;23.30;99.90;;;;;;5039690;28;20056;-70
2022/04/04 07:27:04;;;;;;;3.63;0.57;;;23.20;99.90;;;;;;5031928;28;20034;-69
2022/04/04 07:29:32;;;;;;;4.00;0.80;;;23.10;99.90;;;;;;5032675;28;20036;-69
2022/04/04 07:31:59;;;;;;;2.20;0.90;;;22.90;99.90;;;;;;5033046;28;20394;-69
2022/04/04 07:34:26;;;;;;;3.72;0.75;;;22.90;99.90;;;;;;5051561;28;20067;-69
2022/04/04 07:36:53;;;;;;;4.20;1.05;;;22.90;99.90;;;;;;5050907;28;20041;-68
2022/04/04 07:39:21;;;;;;;2.45;0.90;;;22.80;99.90;;;;;;5055061;28;20033;-69
2022/04/04 07:41:48;;;;;;;5.03;0.90;;;22.70;99.90;;;;;;5054493;28;20495;-69
2022/04/04 07:44:15;;;;;;;2.08;0.70;;;22.70;99.90;;;;;;5054595;28;20070;-69
2022/04/04 07:46:43;;;;;;;2.25;0.60;;;22.60;99.90;;;;;;5063717;28;20041;-69
2022/04/04 07:49:10;;;;;;;5.97;1.25;;;22.50;99.90;;;;;;5053798;28;20051;-69
2022/04/04 07:51:37;;;;;;;4.22;0.93;;;22.50;99.90;;;;;;5057720;23;20042;-70
2022/04/04 07:54:05;;;;;;;7.63;1.65;;;22.50;99.90;;;;;;5028727;28;20042;-69
2022/04/04 07:56:32;;;;;;;3.97;1.13;;;22.50;99.90;;;;;;5017903;28;20474;-69
2022/04/04 07:58:59;;;;;;;7.57;0.95;;;22.50;99.90;;;;;;5035667;28;20032;-69
2022/04/04 08:01:27;;;;;;;9.10;1.58;;;22.40;99.90;;;;;;5033114;28;20033;-69
2022/04/04 08:03:54;;;;;;;5.05;0.70;;;22.40;99.90;;;;;;5033076;28;20129;-69
2022/04/04 08:06:21;;;;;;;5.22;0.93;;;22.40;99.90;;;;;;5034755;28;20045;-69
2022/04/04 08:08:48;;;;;;;4.68;1.10;;;22.30;99.90;;;;;;5032396;28;20044;-69
2022/04/04 08:11:16;;;;;;;7.95;0.90;;;22.30;99.90;;;;;;5027610;28;20030;-68
2022/04/04 08:13:45;;;;;;;1.30;0.73;;;22.20;99.90;;;;;;5031221;28;20037;-69
2022/04/04 08:16:12;;;;;;;3.88;0.77;;;22.20;99.90;;;;;;5034169;28;20143;-69
2022/04/04 08:18:40;;;;;;;6.63;1.00;;;22.20;99.90;;;;;;5032796;28;20097;-70
2022/04/04 08:21:07;;;;;;;9.00;0.80;;;22.10;99.90;;;;;;5037272;28;20037;-68
2022/04/04 08:23:34;;;;;;;2.92;1.00;;;22.10;99.90;;;;;;5055120;28;20021;-69
2022/04/04 08:26:02;;;;;;;5.68;1.38;;;22.00;99.90;;;;;;5039709;28;20038;-68
2022/04/04 08:28:29;;;;;;;4.57;1.70;;;22.00;99.90;;;;;;5031853;28;20375;-68
2022/04/04 08:30:58;;;;;;;4.63;1.30;;;22.00;99.90;;;;;;5035111;28;20021;-69
2022/04/04 08:33:27;;;;;;;3.78;1.35;;;21.90;99.90;;;;;;5016237;28;20121;-66
2022/04/04 08:35:55;;;;;;;5.00;1.80;;;21.90;99.90;;;;;;5014980;28;20044;-68
2022/04/04 08:38:22;;;;;;;5.70;2.92;;;21.80;99.90;;;;;;5033733;28;20068;-68
2022/04/04 08:40:51;;;;;;;16.52;11.93;;;21.80;99.90;;;;;;5034031;28;20088;-68
2022/04/04 08:43:19;;;;;;;14.50;8.65;;;21.70;99.90;;;;;;5033994;28;20034;-68
2022/04/04 08:45:50;;;;;;;10.40;4.65;;;21.70;99.90;;;;;;5034466;28;20035;-68
2022/04/04 08:48:18;;;;;;;7.13;2.35;;;21.70;99.90;;;;;;5013928;28;20030;-68
2022/04/04 08:50:46;;;;;;;5.95;1.33;;;21.70;99.90;;;;;;5031067;28;20117;-67
2022/04/04 08:53:14;;;;;;;4.72;0.98;;;21.70;99.90;;;;;;5069430;28;20044;-68
2022/04/04 08:55:41;;;;;;;2.78;0.95;;;21.60;99.90;;;;;;5072542;28;20039;-68
2022/04/04 08:58:10;;;;;;;6.88;1.02;;;21.70;99.90;;;;;;5073069;28;20032;-67
2022/04/04 09:00:38;;;;;;;3.85;1.45;;;21.60;99.90;;;;;;5053109;28;20082;-67
2022/04/04 09:03:08;;;;;;;2.72;0.90;;;21.60;99.90;;;;;;5074529;28;20556;-67
2022/04/04 09:05:56;;;;;;;5.07;1.48;;;21.60;99.90;;;;;;5066652;28;20381;-68
2022/04/04 09:08:24;;;;;;;6.43;1.23;;;21.60;99.90;;;;;;5073399;28;20028;-67
2022/04/04 09:10:56;;;;;;;9.45;1.25;;;21.60;99.90;;;;;;5074123;28;20043;-67
2022/04/04 09:13:25;;;;;;;6.15;1.38;;;21.50;99.90;;;;;;5073551;28;20395;-67
2022/04/04 09:16:04;;;;;;;5.32;1.30;;;21.50;99.90;;;;;;5068131;28;20035;-67
2022/04/04 09:18:50;;;;;;;4.25;1.55;;;21.40;99.90;;;;;;5067170;28;20029;-68
2022/04/04 09:21:20;;;;;;;3.00;1.23;;;21.40;99.90;;;;;;5082114;28;20031;-68
2022/04/04 09:23:50;;;;;;;5.88;1.23;;;21.40;99.90;;;;;;5078332;28;20068;-68
2022/04/04 09:26:37;;;;;;;5.18;1.42;;;21.30;99.90;;;;;;5053880;28;20017;-70
2022/04/04 09:29:19;;;;;;;5.00;1.63;;;21.20;99.90;;;;;;5074949;28;20021;-70
2022/04/04 09:31:57;;;;;;;6.38;1.58;;;21.20;99.90;;;;;;5074271;28;20032;-70
2022/04/04 09:34:25;;;;;;;4.55;1.35;;;21.20;99.90;;;;;;5068756;28;20035;-70
2022/04/04 09:36:53;;;;;;;6.80;1.83;;;21.10;99.90;;;;;;5074351;28;20044;-69
2022/04/04 09:39:20;;;;;;;3.88;1.48;;;21.10;99.90;;;;;;5072933;28;20020;-68
2022/04/04 09:41:47;;;;;;;4.03;1.75;;;21.10;99.90;;;;;;5091559;28;20032;-67
2022/04/04 09:44:16;;;;;;;4.55;1.42;;;21.10;99.90;;;;;;5084217;28;20035;-68
2022/04/04 09:46:47;;;;;;;5.20;1.33;;;21.10;99.90;;;;;;5073643;28;20111;-68
2022/04/04 09:49:18;;;;;;;3.78;1.50;;;21.10;99.90;;;;;;5075307;28;20715;-68
2022/04/04 09:51:47;;;;;;;5.00;1.80;;;21.10;99.90;;;;;;5082253;28;20063;-67
2022/04/04 09:54:28;;;;;;;5.05;2.17;;;21.10;99.90;;;;;;5055912;28;20074;-68
2022/04/04 09:57:09;;;;;;;4.70;2.60;;;21.10;99.90;;;;;;5076033;28;20032;-68
2022/04/04 09:59:38;;;;;;;9.93;2.97;;;21.10;99.90;;;;;;5074864;28;20055;-67
2022/04/04 10:02:05;;;;;;;9.65;2.85;;;21.10;99.90;;;;;;5072138;28;20025;-68
2022/04/04 10:04:33;;;;;;;9.02;2.47;;;21.10;99.90;;;;;;5061551;28;20067;-68
2022/04/04 10:07:09;;;;;;;7.50;2.33;;;21.10;99.90;;;;;;5086253;28;20104;-68
2022/04/04 10:09:37;;;;;;;5.15;2.20;;;21.10;99.90;;;;;;5070271;28;20028;-68
2022/04/04 10:12:05;;;;;;;8.75;2.35;;;21.10;99.90;;;;;;5051903;28;20567;-68
2022/04/04 10:14:35;;;;;;;9.88;3.05;;;21.00;99.90;;;;;;5051676;28;20036;-68
2022/04/04 10:17:04;;;;;;;9.00;4.18;;;21.10;99.90;;;;;;5074671;28;20127;-68
2022/04/04 10:19:34;;;;;;;8.68;5.15;;;21.00;99.90;;;;;;5076919;28;20055;-68
2022/04/04 10:22:01;;;;;;;9.05;3.75;;;21.00;99.90;;;;;;5057634;28;20025;-68
2022/04/04 10:24:29;;;;;;;8.68;3.00;;;21.10;99.90;;;;;;5071132;28;20028;-68
2022/04/04 10:26:58;;;;;;;7.07;2.80;;;21.00;99.90;;;;;;5055448;28;20025;-68
2022/04/04 10:29:40;;;;;;;8.43;3.08;;;21.00;99.90;;;;;;5074480;28;20028;-68
2022/04/04 10:32:23;;;;;;;6.10;2.00;;;21.00;99.90;;;;;;5052919;28;20023;-68
2022/04/04 10:34:51;;;;;;;6.72;2.97;;;21.00;99.90;;;;;;5063932;28;20119;-67
2022/04/04 10:37:23;;;;;;;8.65;2.28;;;20.90;99.90;;;;;;5071485;28;20024;-68
2022/04/04 10:39:51;;;;;;;8.70;2.42;;;20.80;99.90;;;;;;5072586;28;20025;-69
2022/04/04 10:42:25;;;;;;;7.88;2.47;;;20.80;99.90;;;;;;5071385;28;20036;-68
2022/04/04 10:45:18;;;;;;;9.88;3.08;;;20.80;99.90;;;;;;5077422;28;20016;-68
2022/04/04 10:47:46;;;;;;;6.80;2.47;;;20.80;99.90;;;;;;5067440;28;20524;-69
2022/04/04 10:50:31;;;;;;;5.22;2.47;;;20.70;99.90;;;;;;5088805;28;20464;-68
2022/04/04 10:53:03;;;;;;;8.00;2.30;;;20.70;99.90;;;;;;5051399;28;20170;-69
2022/04/04 10:55:38;;;;;;;5.53;2.70;;;20.70;99.90;;;;;;5071413;28;20131;-69
2022/04/04 10:58:15;;;;;;;4.43;2.47;;;20.70;99.90;;;;;;5067922;28;20043;-69
2022/04/04 11:01:04;;;;;;;5.53;2.42;;;20.70;99.90;;;;;;5050037;28;20041;-69
2022/04/04 11:03:35;;;;;;;5.40;1.88;;;20.70;99.90;;;;;;5072338;28;20557;-68
2022/04/04 11:09:14;;;;;;;4.35;2.22;;;20.50;99.90;;;;;;5069328;28;20039;-69
2022/04/04 11:11:52;;;;;;;5.85;2.08;;;20.30;99.90;;;;;;5055072;28;20041;-69
2022/04/04 11:14:36;;;;;;;5.60;2.38;;;20.30;99.90;;;;;;5052185;28;20373;-68
2022/04/04 11:17:07;;;;;;;3.97;1.88;;;20.30;99.90;;;;;;5064583;28;20068;-68
2022/04/04 11:19:47;;;;;;;6.07;2.00;;;20.30;99.90;;;;;;5076424;28;20027;-69
2022/04/04 11:22:25;;;;;;;5.00;1.75;;;20.20;99.90;;;;;;5075874;28;20036;-69
2022/04/04 11:25:05;;;;;;;6.53;2.50;;;20.20;99.90;;;;;;5075472;28;20020;-69
2022/04/04 11:27:35;;;;;;;8.07;2.13;;;20.10;99.90;;;;;;5076372;28;20028;-69
2022/04/04 11:30:10;;;;;;;7.35;2.92;;;20.00;99.90;;;;;;5078977;28;20019;-69
2022/04/04 11:32:40;;;;;;;10.30;2.58;;;20.00;99.90;;;;;;5056809;28;20033;-69
2022/04/04 11:35:18;;;;;;;6.40;2.17;;;20.00;99.90;;;;;;5074396;28;20028;-69
2022/04/04 11:37:57;;;;;;;4.88;1.73;;;20.10;99.90;;;;;;5086345;28;20016;-69
2022/04/04 11:40:37;;;;;;;5.03;1.45;;;20.10;99.90;;;;;;5072172;28;20029;-69
2022/04/04 11:43:13;;;;;;;8.65;2.97;;;20.10;99.90;;;;;;5064311;28;20067;-69
2022/04/04 11:45:43;;;;;;;6.57;2.45;;;20.10;99.90;;;;;;5081119;28;20020;-69
2022/04/04 11:48:17;;;;;;;9.55;2.33;;;20.20;99.90;;;;;;5077327;28;20024;-69
2022/04/04 11:50:45;;;;;;;5.82;2.30;;;20.20;99.90;;;;;;5075332;28;20021;-69
2022/04/04 11:53:25;;;;;;;2.78;1.80;;;20.20;99.90;;;;;;5077750;28;20041;-69
2022/04/04 11:56:00;;;;;;;5.28;2.13;;;20.20;99.90;;;;;;5066517;28;20025;-69
2022/04/04 11:58:28;;;;;;;5.97;2.28;;;20.20;99.90;;;;;;5075835;28;20033;-69
2022/04/04 12:01:04;;;;;;;4.20;1.88;;;20.20;99.90;;;;;;5064864;28;20083;-69
2022/04/04 12:03:32;;;;;;;5.68;2.20;;;20.20;99.90;;;;;;5070970;28;20028;-69
2022/04/04 12:06:06;;;;;;;7.03;2.22;;;20.20;99.90;;;;;;5055516;28;20024;-70
2022/04/04 12:08:42;;;;;;;5.95;2.20;;;20.20;99.90;;;;;;5054765;28;20473;-69
2022/04/04 12:11:10;;;;;;;4.90;2.13;;;20.10;99.90;;;;;;5080954;28;20044;-69
2022/04/04 12:13:56;;;;;;;6.55;2.50;;;20.00;99.90;;;;;;5075056;28;20128;-69
2022/04/04 12:16:27;;;;;;;6.35;2.45;;;19.90;99.90;;;;;;5061715;28;20027;-69
2022/04/04 12:18:57;;;;;;;5.75;1.75;;;19.80;99.90;;;;;;5073164;28;20025;-69
2022/04/04 12:21:25;;;;;;;4.43;2.03;;;19.70;99.90;;;;;;5056992;28;20036;-69
2022/04/04 12:26:38;;;;;;;2.55;1.52;;;19.50;99.90;;;;;;5067031;28;20031;-70
2022/04/04 12:29:15;;;;;;;6.38;2.33;;;19.30;99.90;;;;;;5073204;28;20534;-70
2022/04/04 12:31:56;;;;;;;6.57;2.30;;;19.30;99.90;;;;;;5074377;28;20504;-69
2022/04/04 12:34:25;;;;;;;7.72;2.22;;;19.30;99.90;;;;;;5068417;28;20448;-69
2022/04/04 12:37:00;;;;;;;4.95;1.75;;;19.40;99.90;;;;;;5073591;28;20024;-69
2022/04/04 12:39:28;;;;;;;5.90;1.83;;;19.50;99.90;;;;;;5065677;28;20029;-69
2022/04/04 12:41:55;;;;;;;4.80;2.17;;;19.50;99.90;;;;;;5072569;28;20025;-69
2022/04/04 12:44:24;;;;;;;7.20;1.92;;;19.50;99.90;;;;;;5071490;28;20035;-69
2022/04/04 12:47:09;;;;;;;7.20;2.28;;;19.60;99.90;;;;;;5076329;28;20016;-69
2022/04/04 12:49:38;;;;;;;8.80;1.98;;;19.50;99.90;;;;;;5069214;28;20423;-69
2022/04/04 12:52:08;;;;;;;6.53;1.70;;;19.50;99.90;;;;;;5065587;28;21562;-69
2022/04/04 12:54:41;;;;;;;4.18;1.70;;;19.50;99.90;;;;;;5066537;28;20033;-69
2022/04/04 12:57:11;;;;;;;7.10;1.80;;;19.50;99.90;;;;;;5070654;28;20060;-69
2022/04/04 12:59:56;;;;;;;5.80;2.08;;;19.40;99.90;;;;;;5055120;28;20031;-69
2022/04/04 13:02:32;;;;;;;8.98;2.65;;;19.50;99.90;;;;;;5071855;28;20060;-69
2022/04/04 13:05:16;;;;;;;4.30;1.55;;;19.40;99.90;;;;;;5076258;28;20031;-70
2022/04/04 13:07:55;;;;;;;5.32;1.83;;;19.40;99.90;;;;;;5071848;28;20025;-69
2022/04/04 13:10:26;;;;;;;4.75;2.10;;;19.40;99.90;;;;;;5078250;28;20028;-69